createdAt,value
2018-10-15T00:00:07.223Z,23.50
2018-10-15T00:02:38.847Z,23.00
2018-10-15T00:05:09.503Z,23.00
2018-10-15T00:07:39.050Z,24.75
2018-10-15T00:10:11.245Z,23.75
2018-10-15T00:12:41.655Z,19.75
2018-10-15T00:15:20.497Z,21.50
2018-10-15T00:17:52.108Z,22.50
2018-10-15T00:20:22.292Z,24.25
2018-10-15T00:22:57.704Z,22.25
2018-10-15T00:25:30.239Z,23.00
2018-10-15T00:27:59.840Z,20.25
2018-10-15T00:30:30.031Z,22.00
2018-10-15T00:33:04.536Z,20.25
2018-10-15T00:35:35.499Z,24.00
2018-10-15T00:38:06.171Z,20.50
2018-10-15T00:40:36.170Z,21.50
2018-10-15T00:43:05.614Z,21.75
2018-10-15T00:45:35.472Z,21.00
2018-10-15T00:48:05.747Z,21.75
2018-10-15T00:50:37.464Z,21.50
2018-10-15T00:53:09.109Z,20.50
2018-10-15T00:55:40.044Z,21.00
2018-10-15T00:58:11.114Z,22.50
2018-10-15T01:00:41.110Z,19.75
2018-10-15T01:03:10.782Z,21.00
2018-10-15T01:05:41.078Z,21.75
2018-10-15T01:08:11.345Z,23.75
2018-10-15T01:10:42.313Z,21.00
2018-10-15T01:13:12.871Z,20.75
2018-10-15T01:15:44.148Z,21.75
2018-10-15T01:18:14.700Z,22.75
2018-10-15T01:20:44.269Z,23.00
2018-10-15T01:23:14.320Z,21.50
2018-10-15T01:25:47.030Z,22.75
2018-10-15T01:28:16.782Z,23.00
2018-10-15T01:30:47.569Z,24.00
2018-10-15T01:33:19.289Z,23.00
2018-10-15T01:35:49.091Z,20.75
2018-10-15T01:38:18.717Z,22.75
2018-10-15T01:40:49.576Z,20.25
2018-10-15T01:44:24.161Z,20.75
2018-10-15T01:46:55.477Z,22.50
2018-10-15T01:49:27.615Z,23.00
2018-10-15T01:51:57.726Z,22.75
2018-10-15T01:54:29.385Z,23.25
2018-10-15T01:59:44.473Z,19.50
2018-10-15T02:02:14.956Z,22.75
2018-10-15T02:04:46.560Z,21.00
2018-10-15T02:07:17.717Z,20.25
2018-10-15T02:09:52.865Z,20.00
2018-10-15T02:12:24.238Z,20.25
2018-10-15T02:14:55.040Z,20.75
2018-10-15T02:17:24.987Z,19.00
2018-10-15T02:19:55.576Z,19.75
2018-10-15T02:22:31.363Z,18.75
2018-10-15T02:25:01.092Z,22.50
2018-10-15T02:27:30.957Z,21.25
2018-10-15T02:30:04.184Z,19.25
2018-10-15T02:32:35.481Z,21.25
2018-10-15T02:35:05.266Z,18.75
2018-10-15T02:37:38.243Z,20.00
2018-10-15T02:40:08.401Z,20.75
2018-10-15T02:42:38.578Z,19.25
2018-10-15T02:45:10.192Z,18.25
2018-10-15T02:47:41.343Z,17.00
2018-10-15T02:50:11.849Z,18.00
2018-10-15T02:52:42.225Z,17.50
2018-10-15T02:55:14.645Z,21.50
2018-10-15T02:57:44.608Z,18.25
2018-10-15T03:00:17.353Z,17.75
2018-10-15T03:02:47.137Z,19.75
2018-10-15T03:05:17.798Z,18.25
2018-10-15T03:07:47.652Z,17.25
2018-10-15T03:10:19.480Z,16.00
2018-10-15T03:12:50.010Z,17.00
2018-10-15T03:15:31.131Z,15.50
2018-10-15T03:18:03.000Z,14.50
2018-10-15T03:20:32.778Z,18.75
2018-10-15T03:23:03.154Z,17.00
2018-10-15T03:25:32.773Z,18.50
2018-10-15T03:28:02.825Z,16.75
2018-10-15T03:30:32.664Z,16.75
2018-10-15T03:33:03.324Z,18.00
2018-10-15T03:35:33.155Z,14.75
2018-10-15T03:38:02.761Z,18.25
2018-10-15T03:40:39.903Z,17.50
2018-10-15T03:43:09.958Z,16.00
2018-10-15T03:45:40.390Z,19.75
2018-10-15T03:48:10.618Z,17.25
2018-10-15T03:50:40.143Z,19.50
2018-10-15T03:53:09.778Z,18.50
2018-10-15T03:55:39.500Z,18.25
2018-10-15T03:58:10.464Z,18.75
2018-10-15T04:00:40.811Z,17.00
2018-10-15T04:03:10.416Z,16.00
2018-10-15T04:05:40.255Z,18.25
2018-10-15T04:08:10.093Z,17.25
2018-10-15T04:10:39.994Z,17.75
2018-10-15T04:13:09.951Z,17.75
2018-10-15T04:15:39.835Z,17.50
2018-10-15T04:18:09.402Z,16.75
2018-10-15T04:20:40.746Z,18.25
2018-10-15T04:23:10.497Z,17.00
2018-10-15T04:25:40.546Z,17.25
2018-10-15T04:28:11.486Z,16.50
2018-10-15T04:30:41.575Z,17.50
2018-10-15T04:33:11.554Z,16.00
2018-10-15T04:35:44.783Z,18.75
2018-10-15T04:38:14.676Z,19.00
2018-10-15T04:40:44.476Z,18.00
2018-10-15T04:43:14.552Z,20.25
2018-10-15T04:45:44.423Z,18.75
2018-10-15T04:48:14.211Z,19.25
2018-10-15T04:50:49.158Z,17.75
2018-10-15T04:53:18.910Z,19.25
2018-10-15T04:55:50.078Z,21.50
2018-10-15T04:58:23.439Z,18.25
2018-10-15T05:00:55.770Z,20.75
2018-10-15T05:03:25.549Z,19.50
2018-10-15T05:05:58.366Z,19.25
2018-10-15T05:08:29.520Z,18.75
2018-10-15T05:11:00.891Z,20.25
2018-10-15T05:13:31.473Z,20.00
2018-10-15T05:16:02.418Z,23.75
2018-10-15T05:18:32.247Z,20.25
2018-10-15T05:21:02.543Z,20.00
2018-10-15T05:23:32.831Z,21.75
2018-10-15T05:26:03.428Z,20.00
2018-10-15T05:28:35.590Z,19.50
2018-10-15T05:31:10.390Z,21.75
2018-10-15T05:33:45.860Z,21.25
2018-10-15T05:36:23.111Z,22.00
2018-10-15T05:38:55.181Z,21.50
2018-10-15T05:41:25.831Z,24.25
2018-10-15T05:43:56.841Z,23.25
2018-10-15T05:46:27.924Z,23.00
2018-10-15T05:48:58.815Z,23.25
2018-10-15T05:51:32.907Z,23.50
2018-10-15T05:54:03.514Z,24.00
2018-10-15T05:56:36.346Z,23.00
2018-10-15T05:59:08.188Z,19.00
2018-10-15T06:01:38.446Z,20.25
2018-10-15T06:04:09.942Z,24.75
2018-10-15T06:06:40.629Z,24.50
2018-10-15T06:09:14.652Z,22.25
2018-10-15T06:11:48.654Z,22.25
2018-10-15T06:14:18.998Z,21.00
2018-10-15T06:16:50.637Z,23.25
2018-10-15T06:19:23.371Z,25.75
2018-10-15T06:21:55.598Z,22.75
2018-10-15T06:24:26.410Z,22.50
2018-10-15T06:26:58.516Z,21.50
2018-10-15T06:29:33.261Z,22.75
2018-10-15T06:32:13.749Z,24.00
2018-10-15T06:34:44.294Z,23.50
2018-10-15T06:37:17.788Z,22.75
2018-10-15T06:39:51.703Z,25.25
2018-10-15T06:42:21.620Z,25.25
2018-10-15T06:44:58.951Z,22.50
2018-10-15T06:47:41.283Z,22.50
2018-10-15T06:50:11.994Z,25.25
2018-10-15T06:52:42.187Z,23.00
2018-10-15T06:55:12.032Z,22.00
2018-10-15T07:00:31.581Z,21.25
2018-10-15T07:03:09.699Z,22.00
2018-10-15T07:05:41.611Z,22.00
2018-10-15T07:08:13.258Z,23.75
2018-10-15T07:10:43.232Z,25.00
2018-10-15T07:13:13.342Z,21.25
2018-10-15T07:15:43.700Z,24.75
2018-10-15T07:18:13.610Z,24.50
2018-10-15T07:20:44.495Z,24.50
2018-10-15T07:23:14.709Z,21.25
2018-10-15T07:25:46.336Z,21.75
2018-10-15T07:28:20.622Z,24.00
2018-10-15T07:30:51.960Z,21.75
2018-10-15T07:33:26.824Z,21.00
2018-10-15T07:35:56.662Z,22.00
2018-10-15T07:38:33.282Z,21.75
2018-10-15T07:41:04.572Z,21.25
2018-10-15T07:43:35.036Z,22.50
2018-10-15T07:46:05.567Z,23.75
2018-10-15T07:48:35.265Z,21.50
2018-10-15T07:51:38.114Z,21.00
2018-10-15T07:54:08.279Z,20.50
2018-10-15T07:56:38.423Z,21.00
2018-10-15T07:59:10.638Z,22.25
2018-10-15T08:01:46.381Z,19.50
2018-10-15T08:04:17.851Z,22.75
2018-10-15T08:06:48.139Z,20.50
2018-10-15T08:09:19.297Z,21.00
2018-10-15T08:11:55.807Z,16.25
2018-10-15T08:14:31.123Z,17.00
2018-10-15T08:17:02.422Z,21.50
2018-10-15T08:19:34.010Z,18.00
2018-10-15T08:22:05.891Z,19.00
2018-10-15T08:24:36.860Z,22.00
2018-10-15T08:27:09.297Z,20.50
2018-10-15T08:29:39.032Z,19.00
2018-10-15T08:32:14.437Z,19.00
2018-10-15T08:34:44.000Z,18.00
2018-10-15T08:37:15.123Z,21.00
2018-10-15T08:39:51.762Z,22.50
2018-10-15T08:42:27.266Z,19.50
2018-10-15T08:44:59.061Z,18.50
2018-10-15T08:47:32.903Z,18.25
2018-10-15T08:50:02.927Z,17.00
2018-10-15T08:52:33.268Z,18.25
2018-10-15T08:55:06.902Z,18.00
2018-10-15T08:57:38.643Z,17.00
2018-10-15T09:00:14.811Z,17.75
2018-10-15T09:02:48.848Z,19.00
2018-10-15T09:07:55.740Z,17.25
2018-10-15T09:10:25.324Z,17.75
2018-10-15T09:13:04.473Z,18.00
2018-10-15T09:15:40.847Z,17.00
2018-10-15T09:18:11.510Z,18.75
2018-10-15T09:20:44.064Z,16.25
2018-10-15T09:23:13.786Z,17.25
2018-10-15T09:25:43.438Z,18.00
2018-10-15T09:28:46.124Z,18.25
2018-10-15T09:31:18.622Z,17.75
2018-10-15T09:33:50.010Z,20.50
2018-10-15T09:36:24.687Z,19.50
2018-10-15T09:38:56.930Z,17.00
2018-10-15T09:41:26.667Z,19.50
2018-10-15T09:43:56.420Z,20.50
2018-10-15T09:46:27.514Z,19.00
2018-10-15T09:48:58.840Z,19.75
2018-10-15T09:51:30.184Z,19.25
2018-10-15T09:54:05.314Z,18.00
2018-10-15T09:56:41.088Z,19.50
2018-10-15T09:59:16.998Z,17.00
2018-10-15T10:01:55.306Z,19.75
2018-10-15T10:04:30.341Z,19.25
2018-10-15T10:07:14.581Z,18.00
2018-10-15T10:09:45.487Z,19.00
2018-10-15T10:12:18.228Z,18.75
2018-10-15T10:14:51.527Z,16.25
2018-10-15T10:17:32.752Z,20.25
2018-10-15T10:20:17.840Z,19.00
2018-10-15T10:27:49.360Z,17.50
2018-10-15T10:30:27.822Z,18.50
2018-10-15T10:33:06.850Z,18.25
2018-10-15T10:35:53.342Z,19.00
2018-10-15T10:38:36.975Z,20.75
2018-10-15T10:41:09.226Z,19.50
2018-10-15T10:43:42.367Z,19.50
2018-10-15T10:49:22.346Z,20.50
2018-10-15T10:52:08.489Z,19.75
2018-10-15T10:54:40.626Z,20.50
2018-10-15T10:57:13.466Z,20.00
2018-10-15T10:59:47.642Z,21.25
2018-10-15T11:02:19.376Z,17.75
2018-10-15T11:04:50.391Z,19.50
2018-10-15T11:07:23.339Z,18.00
2018-10-15T11:09:54.321Z,19.00
2018-10-15T11:12:27.437Z,16.00
2018-10-15T11:15:04.993Z,17.00
2018-10-15T11:17:47.484Z,16.00
2018-10-15T11:20:18.367Z,17.00
2018-10-15T11:22:50.393Z,19.00
2018-10-15T11:25:22.573Z,19.00
2018-10-15T11:27:54.420Z,17.50
2018-10-15T11:30:25.753Z,23.00
2018-10-15T11:33:03.680Z,16.25
2018-10-15T11:35:34.579Z,18.00
2018-10-15T11:38:16.389Z,15.00
2018-10-15T11:40:47.733Z,18.25
2018-10-15T11:43:17.489Z,15.75
2018-10-15T11:45:50.416Z,18.50
2018-10-15T11:48:24.754Z,19.00
2018-10-15T11:51:03.918Z,16.50
2018-10-15T11:56:45.992Z,16.75
2018-10-15T11:59:19.777Z,15.75
2018-10-15T12:01:50.997Z,14.00
2018-10-15T12:04:22.826Z,13.00
2018-10-15T12:07:00.184Z,15.25
2018-10-15T12:09:34.475Z,16.00
2018-10-15T12:12:07.847Z,16.50
2018-10-15T12:14:40.381Z,14.75
2018-10-15T12:17:11.425Z,14.75
2018-10-15T12:19:41.730Z,15.00
2018-10-15T12:22:17.144Z,15.00
2018-10-15T12:24:47.075Z,13.75
2018-10-15T12:27:27.532Z,15.75
2018-10-15T12:29:58.521Z,15.00
2018-10-15T12:32:29.809Z,15.50
2018-10-15T12:34:59.726Z,14.00
2018-10-15T12:37:29.966Z,15.25
2018-10-15T12:40:05.283Z,14.25
2018-10-15T12:42:38.097Z,12.75
2018-10-15T12:45:19.310Z,16.25
2018-10-15T12:47:53.841Z,14.00
2018-10-15T12:50:26.056Z,14.00
2018-10-15T12:52:55.758Z,13.00
2018-10-15T12:55:26.683Z,15.00
2018-10-15T12:58:14.373Z,13.50
2018-10-15T13:00:44.928Z,15.00
2018-10-15T13:03:15.553Z,15.00
2018-10-15T13:05:48.058Z,12.25
2018-10-15T13:08:40.866Z,15.25
2018-10-15T13:11:22.505Z,15.00
2018-10-15T13:13:55.428Z,16.00
2018-10-15T13:16:28.190Z,14.25
2018-10-15T13:19:06.551Z,15.00
2018-10-15T13:21:52.653Z,15.00
2018-10-15T13:24:22.364Z,14.00
2018-10-15T13:26:55.275Z,13.25
2018-10-15T13:29:33.607Z,14.00
2018-10-15T13:32:04.018Z,15.75
2018-10-15T13:34:36.684Z,13.75
2018-10-15T13:37:06.617Z,14.00
2018-10-15T13:39:38.580Z,13.75
2018-10-15T13:42:08.980Z,15.00
2018-10-15T13:44:40.771Z,13.00
2018-10-15T13:47:23.303Z,14.25
2018-10-15T13:49:54.432Z,14.00
2018-10-15T13:52:24.870Z,12.25
2018-10-15T13:54:55.780Z,13.50
2018-10-15T13:57:26.475Z,13.00
2018-10-15T13:59:58.407Z,15.25
2018-10-15T14:02:29.857Z,13.00
2018-10-15T14:05:03.833Z,15.00
2018-10-15T14:07:37.429Z,12.25
2018-10-15T14:10:25.529Z,13.50
2018-10-15T14:12:56.299Z,13.50
2018-10-15T14:15:40.357Z,13.50
2018-10-15T14:18:11.596Z,15.25
2018-10-15T14:20:44.800Z,16.25
2018-10-15T14:23:22.362Z,16.00
2018-10-15T14:26:04.476Z,13.50
2018-10-15T14:28:36.759Z,16.25
2018-10-15T14:31:10.125Z,14.00
2018-10-15T14:36:13.445Z,19.00
2018-10-15T14:38:44.195Z,17.00
2018-10-15T14:41:44.782Z,17.50
2018-10-15T14:44:27.160Z,12.50
2018-10-15T14:46:57.572Z,14.00
2018-10-15T14:49:28.073Z,14.50
2018-10-15T14:52:05.480Z,12.50
2018-10-15T14:54:44.636Z,12.25
2018-10-15T14:57:18.167Z,16.50
2018-10-15T15:00:00.305Z,12.25
2018-10-15T15:02:31.810Z,15.50
2018-10-15T15:05:08.206Z,14.50
2018-10-15T15:07:41.801Z,12.75
2018-10-15T15:10:23.220Z,13.00
2018-10-15T15:13:04.370Z,12.50
2018-10-15T15:15:46.131Z,11.50
2018-10-15T15:18:18.540Z,20.75
2018-10-15T15:20:51.985Z,14.00
2018-10-15T15:23:22.721Z,13.50
2018-10-15T15:25:53.488Z,13.00
2018-10-15T15:28:33.399Z,11.25
2018-10-15T15:31:04.155Z,12.50
2018-10-15T15:33:37.433Z,12.50
2018-10-15T15:36:09.096Z,10.50
2018-10-15T15:38:39.904Z,19.25
2018-10-15T15:41:12.195Z,17.25
2018-10-15T15:43:43.074Z,11.75
2018-10-15T15:46:14.615Z,12.00
2018-10-15T15:48:45.594Z,12.25
2018-10-15T15:51:24.430Z,10.75
2018-10-15T15:53:54.936Z,13.00
2018-10-15T15:56:30.258Z,24.75
2018-10-15T15:59:06.440Z,19.75
2018-10-15T16:01:39.966Z,24.25
2018-10-15T16:04:19.761Z,14.00
2018-10-15T16:06:54.565Z,12.75
2018-10-15T16:09:28.187Z,13.00
2018-10-15T16:12:00.220Z,11.50
2018-10-15T16:14:34.412Z,11.50
2018-10-15T16:17:08.044Z,11.75
2018-10-15T16:19:39.953Z,12.00
2018-10-15T16:22:10.195Z,10.50
2018-10-15T16:24:42.328Z,12.00
2018-10-15T16:27:13.332Z,18.75
2018-10-15T16:29:44.504Z,22.50
2018-10-15T16:32:17.614Z,29.00
2018-10-15T16:34:49.085Z,20.75
2018-10-15T16:37:25.459Z,20.00
2018-10-15T16:39:56.434Z,21.25
2018-10-15T16:42:26.445Z,23.25
2018-10-15T16:44:57.339Z,24.00
2018-10-15T16:50:37.550Z,19.25
2018-10-15T16:53:08.013Z,25.75
2018-10-15T16:55:44.392Z,27.50
2018-10-15T16:58:21.922Z,17.75
2018-10-15T17:01:00.190Z,22.75
2018-10-15T17:03:33.745Z,23.00
2018-10-15T17:06:17.819Z,16.50
2018-10-15T17:09:00.455Z,14.25
2018-10-15T17:11:32.164Z,14.75
2018-10-15T17:14:04.457Z,17.75
2018-10-15T17:16:45.790Z,15.50
2018-10-15T17:19:36.705Z,24.50
2018-10-15T17:22:28.170Z,18.50
2018-10-15T17:25:14.895Z,18.00
2018-10-15T17:28:15.536Z,18.00
2018-10-15T17:31:05.751Z,18.00
2018-10-15T17:33:44.627Z,19.00
2018-10-15T17:36:22.502Z,17.75
2018-10-15T17:38:57.811Z,19.25
2018-10-15T17:41:40.501Z,18.25
2018-10-15T17:44:16.994Z,19.25
2018-10-15T17:46:54.622Z,19.50
2018-10-15T17:52:41.111Z,24.00
2018-10-15T17:55:22.318Z,24.25
2018-10-15T17:58:09.182Z,24.00
2018-10-15T18:00:50.696Z,23.75
2018-10-15T18:03:52.445Z,21.75
2018-10-15T18:06:34.884Z,20.00
2018-10-15T18:09:22.721Z,20.75
2018-10-15T18:12:07.652Z,19.75
2018-10-15T18:15:03.774Z,20.75
2018-10-15T18:17:43.819Z,25.75
2018-10-15T18:20:19.685Z,25.75
2018-10-15T18:22:57.311Z,28.25
2018-10-15T18:28:29.550Z,24.00
2018-10-15T18:31:19.216Z,26.25
2018-10-15T18:33:52.053Z,24.25
2018-10-15T18:36:30.096Z,27.00
2018-10-15T18:39:10.847Z,27.25
2018-10-15T18:41:48.335Z,20.75
2018-10-15T18:45:10.054Z,23.75
2018-10-15T18:47:45.311Z,22.50
2018-10-15T18:50:29.939Z,23.50
2018-10-15T18:53:05.305Z,20.75
2018-10-15T18:55:43.743Z,21.00
2018-10-15T19:01:02.031Z,20.00
2018-10-15T19:03:34.820Z,21.25
2018-10-15T19:06:06.393Z,21.25
2018-10-15T19:08:37.505Z,18.00
2018-10-15T19:11:12.239Z,21.75
2018-10-15T19:13:42.519Z,19.75
2018-10-15T19:16:16.981Z,19.00
2018-10-15T19:18:53.224Z,19.00
2018-10-15T19:21:24.520Z,18.75
2018-10-15T19:23:54.440Z,22.00
2018-10-15T19:26:24.747Z,20.00
2018-10-15T19:28:55.620Z,21.00
2018-10-15T19:31:26.207Z,21.50
2018-10-15T19:34:02.737Z,21.50
2018-10-15T19:36:35.327Z,18.75
2018-10-15T19:39:14.934Z,18.75
2018-10-15T19:41:49.814Z,22.25
2018-10-15T19:44:20.762Z,22.00
2018-10-15T19:46:59.351Z,21.00
2018-10-15T19:49:30.512Z,18.25
2018-10-15T19:52:05.099Z,21.50
2018-10-15T19:54:35.857Z,20.75
2018-10-15T19:57:10.955Z,19.75
2018-10-15T19:59:42.711Z,18.00
2018-10-15T20:02:23.402Z,20.00
2018-10-15T20:04:55.440Z,21.00
2018-10-15T20:07:27.967Z,17.25
2018-10-15T20:09:59.766Z,18.25
2018-10-15T20:12:35.135Z,20.50
2018-10-15T20:15:08.620Z,20.00
2018-10-15T20:20:33.636Z,18.00
2018-10-15T20:23:04.077Z,18.00
2018-10-15T20:25:34.637Z,18.25
2018-10-15T20:28:06.434Z,20.50
2018-10-15T20:30:40.386Z,19.25
2018-10-15T20:33:13.081Z,18.00
2018-10-15T20:35:47.619Z,20.75
2018-10-15T20:38:20.085Z,20.00
2018-10-15T20:40:58.870Z,21.50
2018-10-15T20:43:40.427Z,20.75
2018-10-15T20:46:15.292Z,19.50
2018-10-15T20:48:52.848Z,21.50
2018-10-15T20:51:23.478Z,19.00
2018-10-15T20:53:53.236Z,20.00
2018-10-15T20:56:24.808Z,21.25
2018-10-15T20:58:57.665Z,21.00
2018-10-15T21:01:29.495Z,21.00
2018-10-15T21:04:00.807Z,20.00
2018-10-15T21:06:30.640Z,20.75
2018-10-15T21:09:00.497Z,21.25
2018-10-15T21:11:30.598Z,20.75
2018-10-15T21:14:01.451Z,19.25
2018-10-15T21:16:35.434Z,18.25
2018-10-15T21:19:07.516Z,22.00
2018-10-15T21:21:39.394Z,22.75
2018-10-15T21:24:10.348Z,21.00
2018-10-15T21:26:41.406Z,22.75
2018-10-15T21:29:12.886Z,20.25
2018-10-15T21:31:43.703Z,20.50
2018-10-15T21:34:14.696Z,18.75
2018-10-15T21:39:36.531Z,20.00
2018-10-15T21:42:11.727Z,19.50
2018-10-15T21:44:41.375Z,23.50
2018-10-15T21:47:13.340Z,21.75
2018-10-15T21:49:43.104Z,22.00
2018-10-15T21:52:13.718Z,21.75
2018-10-15T21:54:46.220Z,21.50
2018-10-15T21:57:20.131Z,20.25
2018-10-15T21:59:52.227Z,24.75
2018-10-15T22:02:26.945Z,23.75
2018-10-15T22:04:57.930Z,24.00
2018-10-15T22:07:32.764Z,22.75
2018-10-15T22:10:09.128Z,23.50
2018-10-15T22:12:39.071Z,23.75
2018-10-15T22:15:15.605Z,24.00
2018-10-15T22:17:47.413Z,22.75
2018-10-15T22:20:20.204Z,23.25
2018-10-15T22:22:50.327Z,24.50
2018-10-15T22:25:21.038Z,23.00
2018-10-15T22:27:50.672Z,22.25
2018-10-15T22:30:20.688Z,23.00
2018-10-15T22:32:50.298Z,23.25
2018-10-15T22:35:20.912Z,26.25
2018-10-15T22:37:52.811Z,22.75
2018-10-15T22:40:22.351Z,22.00
2018-10-15T22:42:52.650Z,24.00
2018-10-15T22:45:23.638Z,23.25
2018-10-15T22:47:54.153Z,22.75
2018-10-15T22:50:26.651Z,24.50
2018-10-15T22:52:59.707Z,24.00
2018-10-15T22:55:40.983Z,23.00
2018-10-15T22:58:13.149Z,24.00
2018-10-15T23:00:44.577Z,23.00
2018-10-15T23:03:17.941Z,26.25
2018-10-15T23:05:51.437Z,22.25
2018-10-15T23:08:27.055Z,23.25
2018-10-15T23:10:57.436Z,28.75
2018-10-15T23:13:27.781Z,25.00
2018-10-15T23:15:57.915Z,25.25
2018-10-15T23:18:31.435Z,22.00
2018-10-15T23:21:03.277Z,25.75
2018-10-15T23:23:35.397Z,25.50
2018-10-15T23:26:05.801Z,25.25
2018-10-15T23:28:36.503Z,24.50
2018-10-15T23:31:14.424Z,26.75
2018-10-15T23:33:44.735Z,23.25
2018-10-15T23:36:14.717Z,25.75
2018-10-15T23:38:44.812Z,24.50
2018-10-15T23:41:14.960Z,23.25
2018-10-15T23:43:45.083Z,24.00
2018-10-15T23:46:15.279Z,23.75
2018-10-15T23:48:44.824Z,19.50
2018-10-15T23:51:14.912Z,25.00
2018-10-15T23:53:45.754Z,22.00
2018-10-15T23:58:50.486Z,26.25
